Time;durP1;ratioP1;P1;durP2;ratioP2;P2;SDS_P1;SDS_P2;PMS_P1;PMS_P2;Temp;Humidity;BMP_temperature;BMP_pressure;BME280_temperature;BME280_humidity;BME280_pressure;Samples;Min_cycle;Max_cycle;Signal;HPM_P1;HPM_P2
2022/09/29 00:00:21;;;;;;;7.17;6.47;;;9.90;99.90;;;;;;5089394;28;20218;-31
2022/09/29 00:02:51;;;;;;;8.20;6.07;;;9.90;99.90;;;;;;5106811;27;20236;-31
2022/09/29 00:05:23;;;;;;;7.83;6.40;;;9.90;99.90;;;;;;5091946;28;20211;-31
2022/09/29 00:07:50;;;;;;;7.03;6.13;;;9.90;99.90;;;;;;5101062;28;20206;-31
2022/09/29 00:10:22;;;;;;;8.47;6.93;;;9.90;99.90;;;;;;5076909;28;20200;-31
2022/09/29 00:12:49;;;;;;;7.63;6.50;;;9.90;99.90;;;;;;5085927;28;20313;-31
2022/09/29 00:15:17;;;;;;;6.80;6.13;;;9.80;99.90;;;;;;5109206;28;20210;-31
2022/09/29 00:17:44;;;;;;;8.07;6.43;;;9.80;99.90;;;;;;5105818;28;20704;-31
2022/09/29 00:20:32;;;;;;;7.93;6.63;;;9.80;99.90;;;;;;5092964;28;20210;-31
2022/09/29 00:23:03;;;;;;;8.17;6.57;;;9.80;99.90;;;;;;5101974;28;20226;-31
2022/09/29 00:25:31;;;;;;;8.00;7.10;;;9.80;99.90;;;;;;5108090;28;20533;-31
2022/09/29 00:28:01;;;;;;;8.10;6.83;;;9.80;99.90;;;;;;5107110;28;20206;-31
2022/09/29 00:30:28;;;;;;;8.30;6.87;;;9.70;99.90;;;;;;5089597;28;20203;-32
2022/09/29 00:32:58;;;;;;;7.53;6.70;;;9.70;99.90;;;;;;5099207;28;20215;-32
2022/09/29 00:35:25;;;;;;;8.40;6.63;;;9.70;99.90;;;;;;5086759;28;20210;-32
2022/09/29 00:37:52;;;;;;;8.70;6.27;;;9.70;99.90;;;;;;5092107;28;20615;-31
2022/09/29 00:40:21;;;;;;;9.00;7.17;;;9.70;99.90;;;;;;5107468;28;20232;-32
2022/09/29 00:42:51;;;;;;;8.47;7.30;;;9.70;99.90;;;;;;5103106;28;20211;-32
2022/09/29 00:45:23;;;;;;;7.10;6.40;;;9.60;99.90;;;;;;5102773;28;20198;-32
2022/09/29 00:48:09;;;;;;;8.33;6.23;;;9.60;99.90;;;;;;5079621;28;20214;-32
2022/09/29 00:50:50;;;;;;;8.93;7.73;;;9.60;99.90;;;;;;5098912;28;20763;-32
2022/09/29 00:53:21;;;;;;;8.53;6.90;;;9.60;99.90;;;;;;5106422;28;20213;-32
2022/09/29 00:56:01;;;;;;;8.47;6.37;;;9.60;99.90;;;;;;5103535;27;20209;-31
2022/09/29 00:58:41;;;;;;;9.50;7.33;;;9.60;99.90;;;;;;5093305;28;20215;-32
2022/09/29 01:01:10;;;;;;;8.20;6.20;;;9.50;99.90;;;;;;5079104;28;20194;-32
2022/09/29 01:03:43;;;;;;;8.63;6.73;;;9.50;99.90;;;;;;5088543;28;20246;-32
2022/09/29 01:06:25;;;;;;;8.20;7.40;;;9.50;99.90;;;;;;5081815;28;20211;-31
2022/09/29 01:09:06;;;;;;;10.03;6.93;;;9.50;99.90;;;;;;5069474;28;20238;-31
2022/09/29 01:11:35;;;;;;;9.07;6.20;;;9.40;99.90;;;;;;5087530;28;20199;-31
2022/09/29 01:14:06;;;;;;;8.17;6.67;;;9.40;99.90;;;;;;5084580;28;20223;-32
2022/09/29 01:16:36;;;;;;;8.17;6.73;;;9.40;99.90;;;;;;5090529;28;20202;-31
2022/09/29 01:19:13;;;;;;;7.40;6.30;;;9.40;99.90;;;;;;5083562;28;20226;-31
2022/09/29 01:22:18;;;;;;;8.60;6.67;;;9.30;99.90;;;;;;5081720;28;20195;-31
2022/09/29 01:25:28;;;;;;;6.83;6.13;;;9.30;99.90;;;;;;5067655;28;20998;-31
2022/09/29 01:28:22;;;;;;;7.37;6.63;;;9.30;99.90;;;;;;5070255;28;20442;-32
2022/09/29 01:31:04;;;;;;;8.77;6.60;;;9.30;99.90;;;;;;5070335;28;20694;-31
2022/09/29 01:33:38;;;;;;;7.53;6.30;;;9.20;99.90;;;;;;5086326;28;20203;-31
2022/09/29 01:36:29;;;;;;;7.50;6.53;;;9.20;99.90;;;;;;5099836;28;20731;-31
2022/09/29 01:39:28;;;;;;;7.67;6.43;;;9.20;99.90;;;;;;5086800;28;20550;-31
2022/09/29 01:42:11;;;;;;;7.00;6.30;;;9.20;99.90;;;;;;5093548;28;20218;-31
2022/09/29 01:44:51;;;;;;;7.30;6.53;;;9.20;99.90;;;;;;5104135;28;20624;-32
2022/09/29 01:47:28;;;;;;;9.47;7.10;;;9.10;99.90;;;;;;5094524;28;20209;-31
2022/09/29 01:50:05;;;;;;;8.53;6.67;;;9.10;99.90;;;;;;5107245;28;20210;-32
2022/09/29 01:52:40;;;;;;;8.03;6.13;;;9.10;99.90;;;;;;5092678;28;20214;-31
2022/09/29 01:55:15;;;;;;;6.87;6.17;;;9.10;99.90;;;;;;5094128;28;20209;-32
2022/09/29 01:57:45;;;;;;;7.47;6.40;;;9.00;99.90;;;;;;5105189;27;20231;-32
2022/09/29 02:00:17;;;;;;;9.70;6.30;;;9.00;99.90;;;;;;5089737;28;20989;-31
2022/09/29 02:02:49;;;;;;;7.00;6.30;;;9.00;99.90;;;;;;5101501;28;20223;-30
2022/09/29 02:05:42;;;;;;;10.37;6.63;;;9.00;99.90;;;;;;5085799;28;20677;-31
2022/09/29 02:08:21;;;;;;;11.30;6.90;;;9.00;99.90;;;;;;5092321;28;20214;-32
2022/09/29 02:11:03;;;;;;;7.20;6.33;;;9.00;99.90;;;;;;5085175;28;20194;-32
2022/09/29 02:13:39;;;;;;;7.10;6.40;;;8.90;99.90;;;;;;5104427;28;20218;-30
2022/09/29 02:16:14;;;;;;;7.10;6.27;;;8.90;99.90;;;;;;5100156;28;20210;-32
2022/09/29 02:18:57;;;;;;;8.43;6.13;;;8.90;99.90;;;;;;5084859;28;20543;-31
2022/09/29 02:21:26;;;;;;;7.83;6.23;;;8.90;99.90;;;;;;5085423;28;20210;-31
2022/09/29 02:23:57;;;;;;;9.53;6.67;;;8.90;99.90;;;;;;5086428;28;20254;-31
2022/09/29 02:26:32;;;;;;;8.70;6.70;;;8.90;99.90;;;;;;5082895;28;20589;-31
2022/09/29 02:29:07;;;;;;;7.07;6.00;;;8.90;99.90;;;;;;5086294;28;20213;-32
2022/09/29 02:31:38;;;;;;;6.23;5.63;;;8.80;99.90;;;;;;5083343;28;20767;-31
2022/09/29 02:34:12;;;;;;;7.97;6.73;;;8.80;99.90;;;;;;5078280;28;20215;-32
2022/09/29 02:37:03;;;;;;;6.80;6.10;;;8.80;99.90;;;;;;5101656;28;20198;-31
2022/09/29 02:39:42;;;;;;;8.47;6.50;;;8.80;99.90;;;;;;5095174;28;20218;-31
2022/09/29 02:42:29;;;;;;;8.50;6.77;;;8.80;99.90;;;;;;5090592;28;20709;-31
2022/09/29 02:45:05;;;;;;;6.73;5.60;;;8.70;99.90;;;;;;5106579;28;20194;-32
2022/09/29 02:48:12;;;;;;;8.00;6.57;;;8.70;99.90;;;;;;5094855;28;20198;-30
2022/09/29 02:50:52;;;;;;;6.60;5.47;;;8.70;99.90;;;;;;5095401;28;20632;-31
2022/09/29 02:53:41;;;;;;;7.40;6.00;;;8.70;99.90;;;;;;5103862;28;20201;-31
2022/09/29 02:56:46;;;;;;;6.80;6.07;;;8.60;99.90;;;;;;5097679;28;20210;-31
2022/09/29 02:59:23;;;;;;;10.47;6.03;;;8.60;99.90;;;;;;5103775;28;20353;-31
2022/09/29 03:01:58;;;;;;;8.97;6.50;;;8.60;99.90;;;;;;5104860;28;20296;-32
2022/09/29 03:04:29;;;;;;;8.97;6.47;;;8.60;99.90;;;;;;5086560;28;20199;-31
2022/09/29 03:07:00;;;;;;;9.40;6.17;;;8.60;99.90;;;;;;5071500;28;20210;-32
2022/09/29 03:09:32;;;;;;;8.13;6.33;;;8.50;99.90;;;;;;5103861;28;20301;-31
2022/09/29 03:12:02;;;;;;;6.77;6.10;;;8.50;99.90;;;;;;5080272;28;20289;-32
2022/09/29 03:14:31;;;;;;;11.33;6.10;;;8.50;99.90;;;;;;5103261;28;20680;-32
2022/09/29 03:16:59;;;;;;;7.77;5.80;;;8.50;99.90;;;;;;5104458;28;20209;-32
2022/09/29 03:19:26;;;;;;;8.53;6.67;;;8.50;99.90;;;;;;5086259;28;20272;-32
2022/09/29 03:21:58;;;;;;;7.20;6.07;;;8.50;99.90;;;;;;5104224;28;20198;-31
2022/09/29 03:24:27;;;;;;;7.60;5.70;;;8.40;99.90;;;;;;5104507;28;20742;-32
2022/09/29 03:26:57;;;;;;;7.63;6.37;;;8.40;99.90;;;;;;5086926;28;20569;-31
2022/09/29 03:29:24;;;;;;;8.37;6.53;;;8.40;99.90;;;;;;5102258;28;20206;-31
2022/09/29 03:31:54;;;;;;;8.87;6.10;;;8.40;99.90;;;;;;5104103;28;20321;-31
2022/09/29 03:34:23;;;;;;;8.73;5.73;;;8.40;99.90;;;;;;5088402;28;20207;-31
2022/09/29 03:36:53;;;;;;;8.63;6.33;;;8.30;99.90;;;;;;5089444;28;20194;-32
2022/09/29 03:39:23;;;;;;;6.70;6.00;;;8.30;99.90;;;;;;5104986;28;20198;-31
2022/09/29 03:41:58;;;;;;;7.93;5.87;;;8.30;99.90;;;;;;5091834;28;20217;-31
2022/09/29 03:44:28;;;;;;;6.67;5.93;;;8.30;99.90;;;;;;5101845;28;20698;-31
2022/09/29 03:46:57;;;;;;;9.13;6.20;;;8.30;99.90;;;;;;5104273;28;20256;-31
2022/09/29 03:49:29;;;;;;;8.67;6.10;;;8.30;99.90;;;;;;5099936;28;20195;-31
2022/09/29 03:52:01;;;;;;;7.73;5.67;;;8.30;99.90;;;;;;5093064;28;20257;-32
2022/09/29 03:54:29;;;;;;;9.77;6.77;;;8.30;99.90;;;;;;5086835;28;20403;-31
2022/09/29 03:56:58;;;;;;;7.50;6.33;;;8.30;99.90;;;;;;5094134;28;20199;-30
2022/09/29 03:59:28;;;;;;;10.27;6.63;;;8.30;99.90;;;;;;5085332;28;20199;-32
2022/09/29 04:01:55;;;;;;;8.00;6.13;;;8.30;99.90;;;;;;5098252;28;20214;-31
2022/09/29 04:04:29;;;;;;;7.00;6.27;;;8.20;99.90;;;;;;5086889;28;20256;-31
2022/09/29 04:07:02;;;;;;;11.00;6.60;;;8.20;99.90;;;;;;5089995;28;20571;-32
2022/09/29 04:09:33;;;;;;;7.10;5.77;;;8.20;99.90;;;;;;5107652;28;20703;-31
2022/09/29 04:12:03;;;;;;;9.67;6.03;;;8.20;99.90;;;;;;5100868;28;20213;-31
2022/09/29 04:14:32;;;;;;;6.40;5.80;;;8.20;99.90;;;;;;5084118;28;20298;-31
2022/09/29 04:17:01;;;;;;;8.53;6.27;;;8.20;99.90;;;;;;5105755;28;20214;-31
2022/09/29 04:19:29;;;;;;;14.03;6.90;;;8.20;99.90;;;;;;5108326;28;20269;-31
2022/09/29 04:21:58;;;;;;;10.80;6.30;;;8.10;99.90;;;;;;5096824;28;20205;-31
2022/09/29 04:24:28;;;;;;;9.10;6.30;;;8.10;99.90;;;;;;5085273;28;20218;-32
2022/09/29 04:26:55;;;;;;;7.67;6.00;;;8.10;99.90;;;;;;5105948;28;20210;-31
2022/09/29 04:29:22;;;;;;;8.03;6.10;;;8.10;99.90;;;;;;5100272;28;20206;-32
2022/09/29 04:31:49;;;;;;;6.60;5.87;;;8.10;99.90;;;;;;5107089;28;20575;-31
2022/09/29 04:34:16;;;;;;;7.13;5.83;;;8.10;99.90;;;;;;5092953;28;20207;-32
2022/09/29 04:36:45;;;;;;;9.60;6.50;;;8.10;99.90;;;;;;5091401;28;20698;-32
2022/09/29 04:39:12;;;;;;;8.60;6.53;;;8.10;99.90;;;;;;5107633;28;20215;-31
2022/09/29 04:41:41;;;;;;;9.43;6.20;;;8.10;99.90;;;;;;5107070;28;20259;-31
2022/09/29 04:44:09;;;;;;;6.83;5.67;;;8.00;99.90;;;;;;5100703;28;20226;-31
2022/09/29 04:46:36;;;;;;;8.50;6.70;;;8.00;99.90;;;;;;5105892;28;20191;-31
2022/09/29 04:49:08;;;;;;;7.70;6.30;;;8.00;99.90;;;;;;5108089;28;20202;-31
2022/09/29 04:51:35;;;;;;;8.03;6.30;;;8.00;99.90;;;;;;5095716;28;20553;-37
2022/09/29 04:54:02;;;;;;;7.00;6.30;;;8.00;99.90;;;;;;5102087;28;20527;-32
2022/09/29 04:56:30;;;;;;;7.33;6.50;;;8.00;99.90;;;;;;5102697;28;20205;-32
2022/09/29 04:59:00;;;;;;;7.93;6.67;;;8.00;99.90;;;;;;5100487;27;20207;-32
2022/09/29 05:01:28;;;;;;;11.40;6.97;;;8.00;99.90;;;;;;5081201;28;20211;-32
2022/09/29 05:03:55;;;;;;;9.87;6.40;;;8.00;99.90;;;;;;5086513;28;20784;-31
2022/09/29 05:06:23;;;;;;;7.43;6.37;;;8.00;99.90;;;;;;5098303;28;20206;-30
2022/09/29 05:08:52;;;;;;;11.17;6.77;;;7.90;99.90;;;;;;5073251;28;20202;-32
2022/09/29 05:11:19;;;;;;;7.53;6.33;;;7.90;99.90;;;;;;5077802;28;20676;-32
2022/09/29 05:13:51;;;;;;;8.93;6.50;;;7.90;99.90;;;;;;5078289;28;20206;-31
2022/09/29 05:16:21;;;;;;;11.57;6.80;;;7.90;99.90;;;;;;5079127;28;20199;-32
2022/09/29 05:18:49;;;;;;;8.37;6.63;;;7.90;99.90;;;;;;5078018;28;20269;-32
2022/09/29 05:21:16;;;;;;;8.63;6.70;;;7.80;99.90;;;;;;5079824;28;20210;-31
2022/09/29 05:23:59;;;;;;;10.83;6.70;;;7.80;99.90;;;;;;5078522;28;20238;-32
2022/09/29 05:26:26;;;;;;;10.67;6.40;;;7.80;99.90;;;;;;5071277;28;20210;-30
2022/09/29 05:28:58;;;;;;;8.17;6.37;;;7.80;99.90;;;;;;5085575;28;20638;-32
2022/09/29 05:31:27;;;;;;;10.90;7.10;;;7.80;99.90;;;;;;5085003;28;20685;-31
2022/09/29 05:33:59;;;;;;;12.90;6.77;;;7.70;99.90;;;;;;5081920;28;20198;-31
2022/09/29 05:36:29;;;;;;;11.73;6.50;;;7.70;99.90;;;;;;5071365;28;20674;-32
2022/09/29 05:38:56;;;;;;;8.60;6.40;;;7.70;99.90;;;;;;5077247;28;20196;-31
2022/09/29 05:41:23;;;;;;;11.63;6.57;;;7.70;99.90;;;;;;5070251;28;20716;-31
2022/09/29 05:43:54;;;;;;;12.23;6.73;;;7.70;99.90;;;;;;5065190;28;20566;-32
2022/09/29 05:46:23;;;;;;;11.33;6.67;;;7.60;99.90;;;;;;5090779;28;20251;-30
2022/09/29 05:48:57;;;;;;;8.93;6.37;;;7.70;99.90;;;;;;5077384;28;20686;-31
2022/09/29 05:51:25;;;;;;;11.83;6.70;;;7.70;99.90;;;;;;5068847;28;20199;-32
2022/09/29 05:53:53;;;;;;;12.80;7.13;;;7.70;99.90;;;;;;5086697;28;20293;-31
2022/09/29 05:56:23;;;;;;;12.27;7.23;;;7.70;99.90;;;;;;5100373;28;20227;-31
2022/09/29 05:58:52;;;;;;;10.00;7.10;;;7.70;99.90;;;;;;5102873;28;20210;-31
2022/09/29 06:01:25;;;;;;;10.80;7.70;;;7.70;99.90;;;;;;5091587;28;20199;-31
2022/09/29 06:03:56;;;;;;;8.90;6.50;;;7.70;99.90;;;;;;5075092;28;20222;-31
2022/09/29 06:06:31;;;;;;;10.60;6.80;;;7.70;99.90;;;;;;5078653;28;20214;-31
2022/09/29 06:08:59;;;;;;;13.47;6.93;;;7.70;99.90;;;;;;5083031;28;20633;-31
2022/09/29 06:11:30;;;;;;;10.90;7.10;;;7.70;99.90;;;;;;5085423;28;20195;-32
2022/09/29 06:14:00;;;;;;;11.43;7.13;;;7.70;99.90;;;;;;5081846;28;20225;-32
2022/09/29 06:16:31;;;;;;;9.30;7.13;;;7.70;99.90;;;;;;5084926;28;20194;-30
2022/09/29 06:19:00;;;;;;;12.93;7.00;;;7.70;99.90;;;;;;5078971;28;21685;-31
2022/09/29 06:21:32;;;;;;;11.93;7.03;;;7.70;99.90;;;;;;5082872;28;20993;-31
2022/09/29 06:24:03;;;;;;;9.97;7.27;;;7.70;99.90;;;;;;5086182;28;20219;-30
2022/09/29 06:26:30;;;;;;;11.20;7.63;;;7.70;99.90;;;;;;5084460;28;20407;-32
2022/09/29 06:28:58;;;;;;;13.77;7.67;;;7.70;99.90;;;;;;5083504;28;20230;-31
2022/09/29 06:31:27;;;;;;;9.10;6.83;;;7.80;99.90;;;;;;5081361;28;20196;-32
2022/09/29 06:34:01;;;;;;;11.97;7.10;;;7.80;99.90;;;;;;5067423;28;20226;-32
2022/09/29 06:39:29;;;;;;;12.27;7.23;;;7.80;99.90;;;;;;5083995;28;20215;-31
2022/09/29 06:41:56;;;;;;;16.67;8.07;;;7.80;99.90;;;;;;5083918;28;20226;-30
2022/09/29 06:44:27;;;;;;;15.63;8.00;;;7.80;99.90;;;;;;5082012;28;20333;-32
2022/09/29 06:46:57;;;;;;;12.33;7.63;;;7.80;99.90;;;;;;5080742;28;20687;-31
2022/09/29 06:49:29;;;;;;;11.93;8.37;;;7.90;99.90;;;;;;5082073;28;20210;-31
2022/09/29 06:51:56;;;;;;;13.13;8.33;;;7.90;99.90;;;;;;5082085;28;20268;-31
2022/09/29 06:54:26;;;;;;;14.80;8.30;;;7.90;99.90;;;;;;5081982;28;20202;-31
2022/09/29 06:56:59;;;;;;;13.53;8.17;;;8.00;99.90;;;;;;5079576;28;20195;-31
2022/09/29 06:59:29;;;;;;;17.97;8.60;;;8.00;99.90;;;;;;5084920;28;20218;-31
2022/09/29 07:01:58;;;;;;;12.97;8.27;;;8.00;99.90;;;;;;5076584;28;20653;-32
2022/09/29 07:04:28;;;;;;;18.03;8.27;;;8.10;99.90;;;;;;5083661;28;20249;-32
2022/09/29 07:06:55;;;;;;;15.17;7.73;;;8.10;99.90;;;;;;5084988;28;20195;-31
2022/09/29 07:09:25;;;;;;;16.20;7.87;;;8.10;99.90;;;;;;5085377;28;20238;-31
2022/09/29 07:11:52;;;;;;;16.60;7.47;;;8.20;99.90;;;;;;5083814;28;20203;-31
2022/09/29 07:14:22;;;;;;;16.80;7.50;;;8.20;99.90;;;;;;5084269;28;20223;-31
2022/09/29 07:16:51;;;;;;;10.00;7.10;;;8.30;99.90;;;;;;5084088;28;20223;-31
2022/09/29 07:19:21;;;;;;;20.27;9.67;;;8.30;99.90;;;;;;5083235;28;20234;-31
2022/09/29 07:21:53;;;;;;;14.80;7.90;;;8.30;99.90;;;;;;5083217;28;20217;-31
2022/09/29 07:24:21;;;;;;;13.73;7.87;;;8.40;99.90;;;;;;5085564;28;20665;-31
2022/09/29 07:26:53;;;;;;;11.27;7.30;;;8.40;99.90;;;;;;5085462;28;20250;-32
2022/09/29 07:29:21;;;;;;;15.43;8.10;;;8.50;99.90;;;;;;5065031;28;20504;-31
2022/09/29 07:31:51;;;;;;;19.30;8.60;;;8.50;99.90;;;;;;5073039;28;20282;-31
2022/09/29 07:34:20;;;;;;;18.10;8.43;;;8.50;99.90;;;;;;5063385;28;20212;-31
2022/09/29 07:36:48;;;;;;;16.17;7.83;;;8.60;99.90;;;;;;5064322;28;20199;-31
2022/09/29 07:39:20;;;;;;;15.43;7.53;;;8.60;99.90;;;;;;5064659;28;20199;-31
2022/09/29 07:41:48;;;;;;;12.17;7.67;;;8.60;99.90;;;;;;5064889;28;20253;-31
2022/09/29 07:44:17;;;;;;;11.70;7.50;;;8.70;99.90;;;;;;5076343;28;20227;-32
2022/09/29 07:46:47;;;;;;;17.17;8.13;;;8.70;99.90;;;;;;5078513;28;20200;-32
2022/09/29 07:49:16;;;;;;;12.03;8.00;;;8.70;99.90;;;;;;5088530;28;20635;-31
2022/09/29 07:51:47;;;;;;;10.37;6.90;;;8.80;99.90;;;;;;5083747;28;20219;-32
2022/09/29 07:54:14;;;;;;;13.17;8.47;;;8.80;99.90;;;;;;5088839;28;20215;-32
2022/09/29 07:56:41;;;;;;;20.37;8.43;;;8.90;99.90;;;;;;5084823;28;20670;-31
2022/09/29 07:59:11;;;;;;;14.47;7.70;;;8.90;99.90;;;;;;5088563;28;20693;-31
2022/09/29 08:01:43;;;;;;;15.73;7.77;;;9.00;99.90;;;;;;5085700;28;20230;-31
2022/09/29 08:04:10;;;;;;;15.10;8.43;;;9.00;99.90;;;;;;5081713;28;20311;-32
2022/09/29 08:06:42;;;;;;;16.03;7.67;;;9.10;99.90;;;;;;5086710;28;20561;-31
2022/09/29 08:09:10;;;;;;;13.43;7.33;;;9.10;99.90;;;;;;5084091;28;20485;-31
2022/09/29 08:11:39;;;;;;;13.67;7.57;;;9.20;99.90;;;;;;5085262;28;20203;-32
2022/09/29 08:14:08;;;;;;;15.63;8.57;;;9.30;99.90;;;;;;5085943;28;20411;-31
2022/09/29 08:16:38;;;;;;;12.23;7.97;;;9.50;99.90;;;;;;5085964;28;20313;-32
2022/09/29 08:19:07;;;;;;;14.80;7.67;;;9.60;99.90;;;;;;5084693;28;20317;-31
2022/09/29 08:21:40;;;;;;;24.37;8.77;;;9.60;99.90;;;;;;5086434;28;20706;-32
2022/09/29 08:24:12;;;;;;;18.70;8.30;;;9.70;99.90;;;;;;5086650;28;20225;-32
2022/09/29 08:26:42;;;;;;;15.57;8.07;;;9.70;99.90;;;;;;5083727;28;20215;-34
2022/09/29 08:29:12;;;;;;;40.83;10.27;;;9.80;99.90;;;;;;5086742;28;20195;-32
2022/09/29 08:31:46;;;;;;;20.87;9.07;;;9.90;99.90;;;;;;5082475;28;20619;-32
2022/09/29 08:34:19;;;;;;;20.23;8.50;;;9.90;99.90;;;;;;5087231;28;20236;-31
2022/09/29 08:36:46;;;;;;;18.83;8.33;;;10.00;99.90;;;;;;5087157;28;20226;-32
2022/09/29 08:39:16;;;;;;;21.50;8.53;;;10.10;99.90;;;;;;5086929;28;20199;-32
2022/09/29 08:41:55;;;;;;;15.87;8.20;;;10.10;99.90;;;;;;5083562;28;20226;-32
2022/09/29 08:44:46;;;;;;;19.17;8.43;;;10.20;99.90;;;;;;5067815;28;20231;-32
2022/09/29 08:47:28;;;;;;;17.30;7.87;;;10.30;99.90;;;;;;5082804;28;20218;-31
2022/09/29 08:50:30;;;;;;;16.83;7.97;;;10.30;99.90;;;;;;5086150;28;20207;-31
2022/09/29 08:53:14;;;;;;;13.67;7.57;;;10.30;99.90;;;;;;5078719;28;20203;-31
2022/09/29 08:56:02;;;;;;;15.13;8.07;;;10.40;99.90;;;;;;5085698;28;20218;-31
2022/09/29 08:58:31;;;;;;;14.53;7.63;;;10.50;99.90;;;;;;5085965;28;20194;-32
2022/09/29 09:01:10;;;;;;;21.27;8.63;;;10.50;99.90;;;;;;5075923;28;20285;-31
2022/09/29 09:03:55;;;;;;;15.60;7.93;;;10.60;99.90;;;;;;5085210;28;20312;-32
2022/09/29 09:06:46;;;;;;;15.33;7.83;;;10.60;99.90;;;;;;5086835;28;20569;-31
2022/09/29 09:09:51;;;;;;;14.77;7.57;;;10.70;99.90;;;;;;5086156;28;20211;-32
2022/09/29 09:12:39;;;;;;;15.33;7.77;;;10.80;99.90;;;;;;5085267;28;20566;-31
2022/09/29 09:15:31;;;;;;;14.07;7.73;;;10.80;99.90;;;;;;5081824;28;20206;-31
2022/09/29 09:18:34;;;;;;;14.03;7.43;;;10.90;99.90;;;;;;5077208;28;20593;-32
2022/09/29 09:21:36;;;;;;;11.70;7.80;;;10.90;99.90;;;;;;5085373;28;20575;-32
2022/09/29 09:24:20;;;;;;;16.87;7.20;;;11.00;99.90;;;;;;5079727;28;20233;-31
2022/09/29 09:26:51;;;;;;;11.00;6.53;;;11.00;99.90;;;;;;5086023;28;20203;-32
2022/09/29 09:29:52;;;;;;;11.17;6.87;;;11.10;99.90;;;;;;5085477;28;20659;-32
2022/09/29 09:32:26;;;;;;;11.57;6.57;;;11.20;99.90;;;;;;5074994;28;20327;-31
2022/09/29 09:34:59;;;;;;;10.03;5.87;;;11.20;99.90;;;;;;5075617;28;20306;-31
2022/09/29 09:37:47;;;;;;;9.43;5.90;;;11.30;99.90;;;;;;5084876;28;20213;-32
2022/09/29 09:40:41;;;;;;;12.07;5.53;;;11.40;99.90;;;;;;5075449;28;20270;-30
2022/09/29 09:43:28;;;;;;;11.83;6.23;;;11.40;99.90;;;;;;5084288;28;20618;-31
2022/09/29 09:46:11;;;;;;;9.67;5.73;;;11.50;99.90;;;;;;5083013;28;20225;-31
2022/09/29 09:48:57;;;;;;;9.20;5.67;;;11.60;99.90;;;;;;5082784;28;20207;-31
2022/09/29 09:51:24;;;;;;;10.70;5.30;;;11.60;99.90;;;;;;5082035;28;20198;-31
2022/09/29 09:54:00;;;;;;;10.43;5.77;;;11.70;99.90;;;;;;5083674;28;20311;-31
2022/09/29 09:56:47;;;;;;;9.27;5.70;;;11.70;99.90;;;;;;5072343;28;20202;-31
2022/09/29 09:59:37;;;;;;;13.20;5.70;;;11.80;99.90;;;;;;5084778;28;20206;-30
2022/09/29 10:02:20;;;;;;;9.80;5.40;;;11.90;99.90;;;;;;5083971;28;20225;-30
2022/09/29 10:04:51;;;;;;;8.87;5.30;;;11.90;99.90;;;;;;5084135;28;20325;-30
2022/09/29 10:07:28;;;;;;;9.67;4.60;;;12.00;99.90;;;;;;5075370;28;20196;-30
2022/09/29 10:10:01;;;;;;;8.07;4.27;;;12.00;99.90;;;;;;5065648;28;20694;-31
2022/09/29 10:12:29;;;;;;;9.90;5.03;;;12.10;99.90;;;;;;5065693;28;20415;-31
2022/09/29 10:15:11;;;;;;;7.63;4.97;;;12.10;99.90;;;;;;5076173;28;20440;-31
2022/09/29 10:17:45;;;;;;;6.10;4.00;;;12.20;99.90;;;;;;5084161;28;20283;-31
2022/09/29 10:20:27;;;;;;;7.00;4.13;;;12.30;99.90;;;;;;5083440;28;20269;-33
2022/09/29 10:23:17;;;;;;;6.93;4.20;;;12.30;99.90;;;;;;5084625;28;20222;-31
2022/09/29 10:25:58;;;;;;;8.00;4.63;;;12.40;99.90;;;;;;5080900;28;20227;-32
2022/09/29 10:28:35;;;;;;;6.10;3.70;;;12.40;99.90;;;;;;5064491;28;20218;-31
2022/09/29 10:31:13;;;;;;;5.37;3.37;;;12.50;99.90;;;;;;5078932;28;20309;-31
2022/09/29 10:33:52;;;;;;;6.57;3.53;;;12.60;99.90;;;;;;5084106;28;20195;-32
2022/09/29 10:36:22;;;;;;;7.67;4.10;;;12.60;99.90;;;;;;5080532;28;20243;-31
2022/09/29 10:38:55;;;;;;;6.17;2.73;;;12.70;99.90;;;;;;5081781;28;20207;-32
2022/09/29 10:41:30;;;;;;;6.60;3.43;;;12.70;99.90;;;;;;5075616;28;20271;-31
2022/09/29 10:44:21;;;;;;;7.20;3.23;;;12.70;99.90;;;;;;5083691;28;20202;-31
2022/09/29 10:46:58;;;;;;;6.83;3.57;;;12.80;99.90;;;;;;5077546;28;20218;-31
2022/09/29 10:49:28;;;;;;;8.37;3.67;;;12.80;99.90;;;;;;5083604;28;20611;-31
2022/09/29 10:52:01;;;;;;;6.67;3.30;;;12.80;99.90;;;;;;5083085;28;20201;-31
2022/09/29 10:54:36;;;;;;;5.07;3.17;;;12.90;99.90;;;;;;5080619;28;20298;-32
2022/09/29 10:57:25;;;;;;;5.57;3.13;;;12.90;99.90;;;;;;5083480;28;20206;-31
2022/09/29 10:59:54;;;;;;;4.17;3.10;;;13.00;99.90;;;;;;5079948;28;20202;-32
2022/09/29 11:02:35;;;;;;;7.43;3.97;;;13.00;99.90;;;;;;5079214;28;20207;-31
2022/09/29 11:05:20;;;;;;;4.43;2.97;;;13.10;99.90;;;;;;5081907;28;20550;-31
2022/09/29 11:07:50;;;;;;;5.60;2.70;;;13.20;99.90;;;;;;5066772;28;20273;-30
2022/09/29 11:10:37;;;;;;;4.63;2.53;;;13.20;99.90;;;;;;5076175;28;20222;-31
2022/09/29 11:13:25;;;;;;;4.53;2.67;;;13.30;99.90;;;;;;5083970;28;20214;-30
2022/09/29 11:16:05;;;;;;;7.67;3.10;;;13.40;99.90;;;;;;5081208;28;20214;-31
2022/09/29 11:18:40;;;;;;;6.00;2.50;;;13.40;99.90;;;;;;5086419;28;20694;-31
2022/09/29 11:21:46;;;;;;;4.27;2.10;;;13.50;99.90;;;;;;5086303;28;20526;-31
2022/09/29 11:24:41;;;;;;;4.07;2.50;;;13.60;99.90;;;;;;5087851;28;20221;-31
2022/09/29 11:27:35;;;;;;;3.53;2.37;;;13.70;99.90;;;;;;5080485;28;20198;-31
2022/09/29 11:30:09;;;;;;;3.30;1.97;;;13.80;99.90;;;;;;5077184;28;20214;-31
2022/09/29 11:32:39;;;;;;;3.93;2.27;;;13.80;99.90;;;;;;5082801;28;20210;-31
2022/09/29 11:35:23;;;;;;;5.30;2.23;;;13.90;99.90;;;;;;5078696;28;20327;-35
2022/09/29 11:38:09;;;;;;;4.07;2.20;;;14.00;99.90;;;;;;5086807;28;20218;-31
2022/09/29 11:40:40;;;;;;;7.63;2.67;;;14.00;99.90;;;;;;5081564;28;20207;-31
2022/09/29 11:43:52;;;;;;;6.87;2.30;;;14.10;99.90;;;;;;5085138;28;20314;-32
2022/09/29 11:46:20;;;;;;;4.50;1.83;;;14.20;99.90;;;;;;5087903;28;20532;-31
2022/09/29 11:49:06;;;;;;;4.37;1.80;;;14.20;99.90;;;;;;5085558;28;20547;-31
2022/09/29 11:51:48;;;;;;;2.63;1.93;;;14.30;99.90;;;;;;5067914;28;20598;-31
2022/09/29 11:54:21;;;;;;;4.10;2.13;;;14.30;99.90;;;;;;5085145;28;20205;-31
2022/09/29 11:56:51;;;;;;;2.77;1.80;;;14.40;99.90;;;;;;5084501;28;20252;-31
2022/09/29 11:59:49;;;;;;;3.70;1.80;;;14.40;99.90;;;;;;5086273;28;20203;-31
2022/09/29 12:02:35;;;;;;;4.33;2.03;;;14.50;99.90;;;;;;5083924;28;20206;-31
2022/09/29 12:05:27;;;;;;;3.07;1.60;;;14.40;99.90;;;;;;5087032;28;20309;-31
2022/09/29 12:08:18;;;;;;;4.00;1.70;;;14.50;99.90;;;;;;5088258;28;20206;-31
2022/09/29 12:11:06;;;;;;;2.80;1.30;;;14.50;99.90;;;;;;5088839;28;20617;-30
2022/09/29 12:13:59;;;;;;;1.97;1.37;;;14.50;99.90;;;;;;5082785;28;20219;-31
2022/09/29 12:16:34;;;;;;;2.20;1.43;;;14.50;99.90;;;;;;5078637;28;20677;-31
2022/09/29 12:19:10;;;;;;;2.60;1.40;;;14.50;99.90;;;;;;5086962;28;20238;-32
2022/09/29 12:21:45;;;;;;;1.93;1.33;;;14.60;99.90;;;;;;5087445;28;20214;-31
2022/09/29 12:24:21;;;;;;;3.27;1.33;;;14.60;99.90;;;;;;5086832;28;20660;-31
2022/09/29 12:26:52;;;;;;;2.40;1.30;;;14.60;99.90;;;;;;5084213;28;20707;-31
2022/09/29 12:29:35;;;;;;;1.90;1.23;;;14.60;99.90;;;;;;5085309;28;20676;-31
2022/09/29 12:32:13;;;;;;;3.20;1.53;;;14.60;99.90;;;;;;5081735;28;20216;-31
2022/09/29 12:35:00;;;;;;;3.30;1.27;;;14.60;99.90;;;;;;5084688;28;20825;-31
2022/09/29 12:37:47;;;;;;;2.40;1.20;;;14.60;99.90;;;;;;5087344;28;20689;-31
2022/09/29 12:40:17;;;;;;;2.07;1.33;;;14.70;99.90;;;;;;5087186;28;20213;-31
2022/09/29 12:43:22;;;;;;;3.70;1.50;;;14.70;99.90;;;;;;5084957;28;20214;-31
2022/09/29 12:46:05;;;;;;;2.67;1.50;;;14.70;99.90;;;;;;5085222;28;20211;-32
2022/09/29 12:48:45;;;;;;;1.90;1.17;;;14.80;99.90;;;;;;5086346;28;20195;-31
2022/09/29 12:51:24;;;;;;;1.67;1.00;;;14.80;99.90;;;;;;5078042;28;20305;-32
2022/09/29 12:54:03;;;;;;;2.43;1.23;;;14.80;99.90;;;;;;5086879;28;20198;-32
2022/09/29 12:56:47;;;;;;;2.07;1.30;;;14.80;99.90;;;;;;5087796;28;20206;-32
2022/09/29 12:59:28;;;;;;;1.07;0.87;;;14.90;99.90;;;;;;5085886;28;20264;-32
2022/09/29 13:01:57;;;;;;;1.63;1.10;;;14.90;99.90;;;;;;5083149;28;20556;-31
2022/09/29 13:04:49;;;;;;;1.57;1.07;;;15.00;99.90;;;;;;5085046;28;20240;-32
2022/09/29 13:07:44;;;;;;;3.23;0.97;;;15.00;99.90;;;;;;5070175;28;20253;-31
2022/09/29 13:10:19;;;;;;;2.00;1.07;;;15.10;99.90;;;;;;5087582;28;20195;-33
2022/09/29 13:13:09;;;;;;;3.87;1.60;;;15.20;99.90;;;;;;5085825;28;20581;-31
2022/09/29 13:16:02;;;;;;;3.17;1.20;;;15.20;99.90;;;;;;5081270;28;20218;-31
2022/09/29 13:19:05;;;;;;;5.07;1.57;;;15.30;99.90;;;;;;5086594;28;20735;-31
2022/09/29 13:22:06;;;;;;;3.80;1.30;;;15.40;99.90;;;;;;5080822;28;20200;-31
2022/09/29 13:25:04;;;;;;;2.37;1.17;;;15.40;99.90;;;;;;5094701;28;20207;-31
2022/09/29 13:27:44;;;;;;;3.27;1.87;;;15.40;99.90;;;;;;5076521;28;20222;-31
2022/09/29 13:30:13;;;;;;;6.47;1.83;;;15.50;99.90;;;;;;5066089;28;20200;-31
2022/09/29 13:32:59;;;;;;;2.10;1.00;;;15.50;99.90;;;;;;5084973;28;20203;-31
2022/09/29 13:35:27;;;;;;;3.10;1.20;;;15.50;99.90;;;;;;5086883;28;20215;-31
2022/09/29 13:38:04;;;;;;;2.73;1.20;;;15.50;99.90;;;;;;5085691;28;20211;-31